createdAt,value
2019-02-07T00:01:00.560Z,66.13
2019-02-07T00:03:33.246Z,65.89
2019-02-07T00:06:07.397Z,66.05
2019-02-07T00:08:38.119Z,65.83
2019-02-07T00:11:08.500Z,66.39
2019-02-07T00:13:39.155Z,66.24
2019-02-07T00:16:09.844Z,66.09
2019-02-07T00:18:40.828Z,66.03
2019-02-07T00:21:11.574Z,66.16
2019-02-07T00:23:42.188Z,66.21
2019-02-07T00:26:12.993Z,66.74
2019-02-07T00:28:43.686Z,66.45
2019-02-07T00:31:14.272Z,66.33
2019-02-07T00:33:44.803Z,66.46
2019-02-07T00:36:15.559Z,66.86
2019-02-07T00:38:46.188Z,66.46
2019-02-07T00:41:16.502Z,66.36
2019-02-07T00:43:46.743Z,66.43
2019-02-07T00:46:17.592Z,66.34
2019-02-07T00:48:48.520Z,66.39
2019-02-07T00:51:19.410Z,66.26
2019-02-07T00:53:50.051Z,66.45
2019-02-07T00:56:20.917Z,66.09
2019-02-07T00:58:52.163Z,66.08
2019-02-07T01:01:23.016Z,66.51
2019-02-07T01:03:53.778Z,66.50
2019-02-07T01:06:24.488Z,66.42
2019-02-07T01:08:55.607Z,66.13
2019-02-07T01:11:26.966Z,66.32
2019-02-07T01:13:57.585Z,66.67
2019-02-07T01:16:28.324Z,66.58
2019-02-07T01:18:59.091Z,66.05
2019-02-07T01:21:29.684Z,66.18
2019-02-07T01:24:00.255Z,66.24
2019-02-07T01:26:30.898Z,66.31
2019-02-07T01:29:04.396Z,66.05
2019-02-07T01:31:35.012Z,66.09
2019-02-07T01:34:05.684Z,66.10
2019-02-07T01:36:37.166Z,66.12
2019-02-07T01:39:08.294Z,66.68
2019-02-07T01:41:38.976Z,65.93
2019-02-07T01:44:09.570Z,66.05
2019-02-07T01:46:40.228Z,66.22
2019-02-07T01:49:10.835Z,66.38
2019-02-07T01:51:42.097Z,66.17
2019-02-07T01:54:12.716Z,65.90
2019-02-07T01:56:43.444Z,66.04
2019-02-07T01:59:14.107Z,66.25
2019-02-07T02:01:44.446Z,66.35
2019-02-07T02:04:15.045Z,66.20
2019-02-07T02:06:45.763Z,66.08
2019-02-07T02:09:16.300Z,66.53
2019-02-07T02:11:46.942Z,66.47
2019-02-07T02:14:17.574Z,66.16
2019-02-07T02:16:48.394Z,66.32
2019-02-07T02:19:19.654Z,66.46
2019-02-07T02:21:50.378Z,66.21
2019-02-07T02:24:21.110Z,66.44
2019-02-07T02:26:51.646Z,66.31
2019-02-07T02:29:21.969Z,66.54
2019-02-07T02:31:53.030Z,66.54
2019-02-07T02:34:23.399Z,66.70
2019-02-07T02:36:54.092Z,66.38
2019-02-07T02:39:24.820Z,66.21
2019-02-07T02:41:55.461Z,65.90
2019-02-07T02:44:26.080Z,66.54
2019-02-07T02:46:57.090Z,66.04
2019-02-07T02:49:27.362Z,66.38
2019-02-07T02:51:58.077Z,66.31
2019-02-07T02:54:30.441Z,66.07
2019-02-07T02:57:00.810Z,66.21
2019-02-07T02:59:31.907Z,66.06
2019-02-07T03:02:07.250Z,65.66
2019-02-07T03:04:39.512Z,65.52
2019-02-07T03:07:20.318Z,65.73
2019-02-07T03:10:01.993Z,65.62
2019-02-07T03:12:37.352Z,65.54
2019-02-07T03:15:23.101Z,65.90
2019-02-07T03:17:55.690Z,65.77
2019-02-07T03:20:36.761Z,65.55
2019-02-07T03:23:08.932Z,65.67
2019-02-07T03:25:41.192Z,65.77
2019-02-07T03:28:29.411Z,65.80
2019-02-07T03:31:10.046Z,66.06
2019-02-07T03:33:45.037Z,65.99
2019-02-07T03:36:17.616Z,66.27
2019-02-07T03:38:52.177Z,66.50
2019-02-07T03:41:27.388Z,66.76
2019-02-07T03:44:02.755Z,66.29
2019-02-07T03:46:41.165Z,66.65
2019-02-07T03:49:13.413Z,66.61
2019-02-07T03:51:45.793Z,66.72
2019-02-07T03:54:23.681Z,66.72
2019-02-07T03:57:11.327Z,66.71
2019-02-07T03:59:59.760Z,66.89
2019-02-07T04:02:34.287Z,67.12
2019-02-07T04:05:17.011Z,66.75
2019-02-07T04:07:49.171Z,66.62
2019-02-07T04:10:24.110Z,66.42
2019-02-07T04:12:59.474Z,66.24
2019-02-07T04:15:34.684Z,66.24
2019-02-07T04:18:09.478Z,66.51
2019-02-07T04:20:57.971Z,66.55
2019-02-07T04:23:32.669Z,66.42
2019-02-07T04:26:05.073Z,66.62
2019-02-07T04:28:46.186Z,66.69
2019-02-07T04:31:19.028Z,66.79
2019-02-07T04:33:51.201Z,66.92
2019-02-07T04:36:39.877Z,66.99
2019-02-07T04:39:12.149Z,66.94
2019-02-07T04:42:02.619Z,67.33
2019-02-07T04:44:50.077Z,67.25
2019-02-07T04:47:31.352Z,67.61
2019-02-07T04:50:03.733Z,67.48
2019-02-07T04:52:44.900Z,67.59
2019-02-07T04:55:35.272Z,67.69
2019-02-07T04:58:23.632Z,67.57
2019-02-07T05:00:58.850Z,67.49
2019-02-07T05:03:46.427Z,67.42
2019-02-07T05:06:24.420Z,67.42
2019-02-07T05:09:02.407Z,67.89
2019-02-07T05:11:34.574Z,67.47
2019-02-07T05:14:09.387Z,67.26
2019-02-07T05:16:57.761Z,67.11
2019-02-07T05:19:33.524Z,67.48
2019-02-07T05:22:08.871Z,67.49
2019-02-07T05:24:47.197Z,67.33
2019-02-07T05:27:22.584Z,67.18
2019-02-07T05:29:55.102Z,67.23
2019-02-07T05:32:36.537Z,67.16
2019-02-07T05:35:27.475Z,66.88
2019-02-07T05:38:02.843Z,66.79
2019-02-07T05:40:41.328Z,66.98
2019-02-07T05:43:30.190Z,66.87
2019-02-07T05:46:22.831Z,66.79
2019-02-07T05:49:07.482Z,66.92
2019-02-07T05:51:39.863Z,67.28
2019-02-07T05:54:23.829Z,67.42
2019-02-07T05:56:56.188Z,67.52
2019-02-07T05:59:37.573Z,67.38
2019-02-07T06:02:15.710Z,67.27
2019-02-07T06:04:50.807Z,66.69
2019-02-07T06:07:34.957Z,67.05
2019-02-07T06:10:22.616Z,67.20
2019-02-07T06:13:00.817Z,67.39
2019-02-07T06:15:50.985Z,67.42
2019-02-07T06:18:28.811Z,67.43
2019-02-07T06:21:03.626Z,67.92
2019-02-07T06:23:38.858Z,67.43
2019-02-07T06:26:27.707Z,67.05
2019-02-07T06:29:18.013Z,67.38
2019-02-07T06:31:56.122Z,67.37
2019-02-07T06:34:29.468Z,67.22
2019-02-07T06:37:08.032Z,66.89
2019-02-07T06:39:43.027Z,66.65
2019-02-07T06:42:18.409Z,66.67
2019-02-07T06:44:59.687Z,66.26
2019-02-07T06:47:31.534Z,66.69
2019-02-07T06:50:06.585Z,66.65
2019-02-07T06:52:38.959Z,67.05
2019-02-07T06:55:27.327Z,66.77
2019-02-07T06:58:14.696Z,66.38
2019-02-07T07:00:52.795Z,66.14
2019-02-07T07:03:28.179Z,66.04
2019-02-07T07:06:03.328Z,66.23
2019-02-07T07:08:39.285Z,65.65
2019-02-07T07:11:14.715Z,66.02
2019-02-07T07:13:46.882Z,66.24
2019-02-07T07:16:19.188Z,66.35
2019-02-07T07:19:09.674Z,65.70
2019-02-07T07:21:44.601Z,65.67
2019-02-07T07:24:25.249Z,65.51
2019-02-07T07:27:05.200Z,65.37
2019-02-07T07:29:37.378Z,65.76
2019-02-07T07:32:09.753Z,65.73
2019-02-07T07:34:57.476Z,65.51
2019-02-07T07:37:29.764Z,65.40
2019-02-07T07:40:15.527Z,65.08
2019-02-07T07:43:07.359Z,65.38
2019-02-07T07:45:42.483Z,65.64
2019-02-07T07:48:33.254Z,64.85
2019-02-07T07:51:07.223Z,65.15
2019-02-07T07:53:48.500Z,64.77
2019-02-07T07:56:20.990Z,64.99
2019-02-07T07:59:03.482Z,64.67
2019-02-07T08:01:40.199Z,64.54
2019-02-07T08:04:30.715Z,64.38
2019-02-07T08:07:16.038Z,64.21
2019-02-07T08:09:51.267Z,64.44
2019-02-07T08:12:41.676Z,64.22
2019-02-07T08:15:27.377Z,64.05
2019-02-07T08:18:15.850Z,63.99
2019-02-07T08:20:57.572Z,63.85
2019-02-07T08:23:29.760Z,63.23
2019-02-07T08:26:02.137Z,63.71
2019-02-07T08:28:37.219Z,63.67
2019-02-07T08:31:22.060Z,63.58
2019-02-07T08:34:11.587Z,63.09
2019-02-07T08:36:52.103Z,63.52
2019-02-07T08:39:49.671Z,63.08
2019-02-07T08:42:40.744Z,62.93
2019-02-07T08:45:22.012Z,63.25
2019-02-07T08:48:09.239Z,63.51
2019-02-07T08:50:55.370Z,63.54
2019-02-07T08:53:27.617Z,63.85
2019-02-07T08:56:02.387Z,63.91
2019-02-07T08:58:43.837Z,64.32
2019-02-07T09:01:16.189Z,64.12
2019-02-07T09:03:51.259Z,64.06
2019-02-07T09:06:29.226Z,64.52
2019-02-07T09:09:18.090Z,64.41
2019-02-07T09:11:53.214Z,64.88
2019-02-07T09:14:41.688Z,65.33
2019-02-07T09:17:17.023Z,64.96
2019-02-07T09:20:07.619Z,64.73
2019-02-07T09:22:42.864Z,64.28
2019-02-07T09:25:15.152Z,64.13
2019-02-07T09:28:04.125Z,63.93
2019-02-07T09:30:52.874Z,63.23
2019-02-07T09:33:41.811Z,63.30
2019-02-07T09:36:13.981Z,63.13
2019-02-07T09:38:58.482Z,62.42
2019-02-07T09:41:34.066Z,61.93
2019-02-07T09:44:22.827Z,61.60
2019-02-07T09:46:58.401Z,61.40
2019-02-07T09:49:33.458Z,61.46
2019-02-07T09:52:04.818Z,61.49
2019-02-07T09:54:54.404Z,61.37
2019-02-07T09:57:32.174Z,61.49
2019-02-07T10:00:07.084Z,61.69
2019-02-07T10:02:54.733Z,61.75
2019-02-07T10:05:29.766Z,62.41
2019-02-07T10:08:18.470Z,62.52
2019-02-07T10:10:56.532Z,62.73
2019-02-07T10:13:28.927Z,62.77
2019-02-07T10:16:17.655Z,62.88
2019-02-07T10:18:51.453Z,62.82
2019-02-07T10:21:35.804Z,62.62
2019-02-07T10:24:19.603Z,63.17
2019-02-07T10:27:09.731Z,62.84
2019-02-07T10:29:51.127Z,63.01
2019-02-07T10:32:38.503Z,62.68
2019-02-07T10:35:22.421Z,62.22
2019-02-07T10:37:58.588Z,62.21
2019-02-07T10:40:45.975Z,61.64
2019-02-07T10:43:21.273Z,61.42
2019-02-07T10:46:06.291Z,61.31
2019-02-07T10:48:50.194Z,61.33
2019-02-07T10:51:36.778Z,60.75
2019-02-07T10:54:14.979Z,59.98
2019-02-07T10:56:47.007Z,60.17
2019-02-07T10:59:27.993Z,59.63
2019-02-07T11:02:03.219Z,58.40
2019-02-07T11:04:37.105Z,57.90
2019-02-07T11:07:12.368Z,57.82
2019-02-07T11:09:59.752Z,57.06
2019-02-07T11:12:34.980Z,57.26
2019-02-07T11:15:16.362Z,56.63
2019-02-07T11:17:48.825Z,55.79
2019-02-07T11:20:37.677Z,55.20
2019-02-07T11:23:17.356Z,55.24
2019-02-07T11:26:05.660Z,54.87
2019-02-07T11:28:54.718Z,54.98
2019-02-07T11:31:29.557Z,55.40
2019-02-07T11:34:18.188Z,54.68
2019-02-07T11:37:06.735Z,53.95
2019-02-07T11:39:44.657Z,54.52
2019-02-07T11:42:25.448Z,53.46
2019-02-07T11:45:09.897Z,53.44
2019-02-07T11:47:54.998Z,53.23
2019-02-07T11:50:35.926Z,53.38
2019-02-07T11:53:08.716Z,53.16
2019-02-07T11:55:46.420Z,53.03
2019-02-07T11:58:18.765Z,52.02
2019-02-07T12:00:56.876Z,51.76
2019-02-07T12:03:41.370Z,50.94
2019-02-07T12:06:30.090Z,50.86
2019-02-07T12:09:02.563Z,51.30
2019-02-07T12:11:51.161Z,50.78
2019-02-07T12:14:26.316Z,50.73
2019-02-07T12:17:13.158Z,50.34
2019-02-07T12:20:01.668Z,50.34
2019-02-07T12:22:50.556Z,50.62
2019-02-07T12:25:35.037Z,50.71
2019-02-07T12:28:07.481Z,50.46
2019-02-07T12:30:54.614Z,50.76
2019-02-07T12:33:43.176Z,50.18
2019-02-07T12:36:21.654Z,49.86
2019-02-07T12:39:10.598Z,50.02
2019-02-07T12:41:51.666Z,50.24
2019-02-07T12:44:31.667Z,49.79
2019-02-07T12:47:20.173Z,49.52
2019-02-07T12:50:08.831Z,49.26
2019-02-07T12:52:42.800Z,48.48
2019-02-07T12:55:34.316Z,49.38
2019-02-07T12:58:09.469Z,50.00
2019-02-07T13:00:57.494Z,50.24
2019-02-07T13:03:35.503Z,49.46
2019-02-07T13:06:16.348Z,49.73
2019-02-07T13:08:51.456Z,50.07
2019-02-07T13:11:26.752Z,50.17
2019-02-07T13:14:04.475Z,50.49
2019-02-07T13:16:42.871Z,50.31
2019-02-07T13:19:20.764Z,51.07
2019-02-07T13:22:07.982Z,50.83
2019-02-07T13:24:52.288Z,50.84
2019-02-07T13:27:40.924Z,50.73
2019-02-07T13:30:27.251Z,50.85
2019-02-07T13:33:16.110Z,50.84
2019-02-07T13:36:05.644Z,51.30
2019-02-07T13:38:43.009Z,51.27
2019-02-07T13:41:15.864Z,51.70
2019-02-07T13:44:04.141Z,51.73
2019-02-07T13:46:36.944Z,51.89
2019-02-07T13:49:09.200Z,52.37
2019-02-07T13:51:57.566Z,52.26
2019-02-07T13:54:48.143Z,52.81
2019-02-07T13:57:36.623Z,52.85
2019-02-07T14:00:17.872Z,51.80
2019-02-07T14:02:56.114Z,53.54
2019-02-07T14:05:43.011Z,53.59
2019-02-07T14:08:38.346Z,52.78
2019-02-07T14:11:11.213Z,54.22
2019-02-07T14:13:58.451Z,55.06
2019-02-07T14:16:45.827Z,55.14
2019-02-07T14:19:18.179Z,56.66
2019-02-07T14:21:59.353Z,57.02
2019-02-07T14:24:34.547Z,57.13
2019-02-07T14:27:06.894Z,57.47
2019-02-07T14:29:39.400Z,57.54
2019-02-07T14:32:24.238Z,59.01
2019-02-07T14:35:02.654Z,58.12
2019-02-07T14:37:37.895Z,59.63
2019-02-07T14:40:15.793Z,60.15
2019-02-07T14:42:56.873Z,61.05
2019-02-07T14:45:34.872Z,60.87
2019-02-07T14:48:06.288Z,60.99
2019-02-07T14:50:36.866Z,61.32
2019-02-07T14:53:07.936Z,61.52
2019-02-07T14:55:40.143Z,60.32
2019-02-07T14:58:10.445Z,60.98
2019-02-07T15:00:41.023Z,61.39
2019-02-07T15:03:11.552Z,60.83
2019-02-07T15:05:42.190Z,60.58
2019-02-07T15:08:12.832Z,61.32
2019-02-07T15:10:44.898Z,62.28
2019-02-07T15:13:15.590Z,61.53
2019-02-07T15:15:46.259Z,61.73
2019-02-07T15:18:16.913Z,61.85
2019-02-07T15:20:47.418Z,61.52
2019-02-07T15:23:18.146Z,62.23
2019-02-07T15:25:48.678Z,61.68
2019-02-07T15:28:18.911Z,61.27
2019-02-07T15:30:49.627Z,61.70
2019-02-07T15:33:20.786Z,61.68
2019-02-07T15:35:51.062Z,61.80
2019-02-07T15:38:24.237Z,60.97
2019-02-07T15:40:54.209Z,62.21
2019-02-07T15:43:24.840Z,62.08
2019-02-07T15:45:55.593Z,62.59
2019-02-07T15:48:26.205Z,62.36
2019-02-07T15:50:56.859Z,60.77
2019-02-07T15:53:27.280Z,61.79
2019-02-07T15:56:01.764Z,62.69
2019-02-07T15:58:53.976Z,62.33
2019-02-07T16:01:31.850Z,62.84
2019-02-07T16:04:04.200Z,62.93
2019-02-07T16:06:34.815Z,62.47
2019-02-07T16:09:07.949Z,62.69
2019-02-07T16:11:40.592Z,63.06
2019-02-07T16:14:10.889Z,62.53
2019-02-07T16:16:41.462Z,63.04
2019-02-07T16:19:12.203Z,61.41
2019-02-07T16:21:42.460Z,62.57
2019-02-07T16:24:15.833Z,62.81
2019-02-07T16:26:44.973Z,62.60
2019-02-07T16:29:15.847Z,63.78
2019-02-07T16:31:46.471Z,64.83
2019-02-07T16:34:19.062Z,64.39
2019-02-07T16:36:49.599Z,64.03
2019-02-07T16:39:24.254Z,63.69
2019-02-07T16:42:05.634Z,64.42
2019-02-07T16:44:27.091Z,64.80
2019-02-07T16:46:57.680Z,64.60
2019-02-07T16:49:28.566Z,64.75
2019-02-07T16:51:59.336Z,64.48
2019-02-07T16:54:30.602Z,64.92
2019-02-07T16:57:01.398Z,64.43
2019-02-07T16:59:32.542Z,64.10
2019-02-07T17:02:03.231Z,64.05
2019-02-07T17:04:33.909Z,64.53
2019-02-07T17:07:04.439Z,64.48
2019-02-07T17:09:35.879Z,64.04
2019-02-07T17:12:06.839Z,64.60
2019-02-07T17:14:37.583Z,65.40
2019-02-07T17:17:08.192Z,65.72
2019-02-07T17:19:38.515Z,65.72
2019-02-07T17:22:09.212Z,66.21
2019-02-07T17:24:39.978Z,66.24
2019-02-07T17:27:10.813Z,66.72
2019-02-07T17:29:43.922Z,66.36
2019-02-07T17:32:14.207Z,66.24
2019-02-07T17:34:46.415Z,66.70
2019-02-07T17:37:17.033Z,66.52
2019-02-07T17:39:48.195Z,66.26
2019-02-07T17:42:18.856Z,66.50
2019-02-07T17:44:49.455Z,67.11
2019-02-07T17:47:20.070Z,67.24
2019-02-07T17:49:50.820Z,67.09
2019-02-07T17:52:24.111Z,67.31
2019-02-07T17:54:54.773Z,67.60
2019-02-07T17:57:25.375Z,67.57
2019-02-07T17:59:56.024Z,67.68
2019-02-07T18:02:26.534Z,67.67
2019-02-07T18:04:57.249Z,67.63
2019-02-07T18:07:27.910Z,67.68
2019-02-07T18:10:01.395Z,67.57
2019-02-07T18:12:33.571Z,67.58
2019-02-07T18:15:12.324Z,68.05
2019-02-07T18:17:43.930Z,67.98
2019-02-07T18:20:23.269Z,68.77
2019-02-07T18:22:55.345Z,68.58
2019-02-07T18:25:27.726Z,69.05
2019-02-07T18:28:02.607Z,68.84
2019-02-07T18:30:36.240Z,69.49
2019-02-07T18:33:07.814Z,69.70
2019-02-07T18:35:39.369Z,69.26
2019-02-07T18:38:10.638Z,69.62
2019-02-07T18:41:02.951Z,69.81
2019-02-07T18:43:34.589Z,69.68
2019-02-07T18:46:07.797Z,69.80
2019-02-07T18:48:38.421Z,69.94
2019-02-07T18:51:30.233Z,69.20
2019-02-07T18:54:00.914Z,69.15
2019-02-07T18:56:31.675Z,69.38
2019-02-07T18:59:03.985Z,69.84
2019-02-07T19:01:36.971Z,69.95
2019-02-07T19:04:07.329Z,69.94
2019-02-07T19:06:40.151Z,70.60
2019-02-07T19:09:10.901Z,70.79
2019-02-07T19:11:46.767Z,71.04
2019-02-07T19:14:20.296Z,71.51
2019-02-07T19:16:51.023Z,71.15
2019-02-07T19:19:24.303Z,72.51
2019-02-07T19:21:57.635Z,72.04
2019-02-07T19:24:29.584Z,72.03
2019-02-07T19:27:00.314Z,72.11
2019-02-07T19:29:30.924Z,72.99
2019-02-07T19:32:01.553Z,72.87
2019-02-07T19:34:32.311Z,73.39
2019-02-07T19:37:02.639Z,72.92
2019-02-07T19:39:33.650Z,73.48
2019-02-07T19:42:04.054Z,72.88
2019-02-07T19:44:34.770Z,73.88
2019-02-07T19:47:05.483Z,74.15
2019-02-07T19:49:39.684Z,73.98
2019-02-07T19:52:10.781Z,74.11
2019-02-07T19:54:43.810Z,73.50
2019-02-07T19:57:16.287Z,73.79
2019-02-07T19:59:47.034Z,74.50
2019-02-07T20:02:20.286Z,74.09
2019-02-07T20:04:52.815Z,74.11
2019-02-07T20:07:27.816Z,74.48
2019-02-07T20:10:00.590Z,74.38
2019-02-07T20:12:32.596Z,74.78
2019-02-07T20:15:04.637Z,75.04
2019-02-07T20:17:38.638Z,75.28
2019-02-07T20:20:17.323Z,74.86
2019-02-07T20:22:51.268Z,75.03
2019-02-07T20:25:22.799Z,75.58
2019-02-07T20:27:53.581Z,75.92
2019-02-07T20:30:26.490Z,75.11
2019-02-07T20:32:57.176Z,75.85
2019-02-07T20:35:29.465Z,75.66
2019-02-07T20:38:03.272Z,76.00
2019-02-07T20:40:33.872Z,75.87
2019-02-07T20:43:05.642Z,76.03
2019-02-07T20:45:35.985Z,75.42
2019-02-07T20:48:07.731Z,75.75
2019-02-07T20:50:41.549Z,75.65
2019-02-07T20:53:14.032Z,74.94
2019-02-07T20:55:44.331Z,75.72
2019-02-07T20:58:15.169Z,75.15
2019-02-07T21:00:48.604Z,75.96
2019-02-07T21:03:19.319Z,76.25
2019-02-07T21:05:49.645Z,76.58
2019-02-07T21:08:22.187Z,76.03
2019-02-07T21:10:56.150Z,76.41
2019-02-07T21:13:26.508Z,75.77
2019-02-07T21:15:57.262Z,76.28
2019-02-07T21:18:28.816Z,76.04
2019-02-07T21:20:59.479Z,76.17
2019-02-07T21:23:30.084Z,76.67
2019-02-07T21:26:00.713Z,76.58
2019-02-07T21:28:31.340Z,76.65
2019-02-07T21:31:02.173Z,76.25
2019-02-07T21:33:32.917Z,76.17
2019-02-07T21:36:03.645Z,76.43
2019-02-07T21:38:36.220Z,76.40
2019-02-07T21:41:06.583Z,76.36
2019-02-07T21:43:37.311Z,76.31
2019-02-07T21:46:08.017Z,76.36
2019-02-07T21:48:41.195Z,75.89
2019-02-07T21:51:12.562Z,76.15
2019-02-07T21:53:43.639Z,75.66
2019-02-07T21:56:14.392Z,76.31
2019-02-07T21:58:47.583Z,76.43
2019-02-07T22:01:18.289Z,75.88
2019-02-07T22:03:49.015Z,76.37
2019-02-07T22:06:20.022Z,77.00
2019-02-07T22:08:50.676Z,75.82
2019-02-07T22:11:21.303Z,76.46
2019-02-07T22:13:51.980Z,76.56
2019-02-07T22:16:23.945Z,76.19
2019-02-07T22:18:54.977Z,76.85
2019-02-07T22:21:25.689Z,75.92
2019-02-07T22:23:56.532Z,76.63
2019-02-07T22:26:27.143Z,76.50
2019-02-07T22:29:00.268Z,76.30
2019-02-07T22:31:30.917Z,76.42
2019-02-07T22:34:01.584Z,76.31
2019-02-07T22:36:32.227Z,76.22
2019-02-07T22:39:03.705Z,76.75
2019-02-07T22:41:34.338Z,76.82
2019-02-07T22:44:08.115Z,76.44
2019-02-07T22:46:38.950Z,76.84
2019-02-07T22:49:09.687Z,76.88
2019-02-07T22:51:40.343Z,77.47
2019-02-07T22:54:10.683Z,77.45
2019-02-07T22:56:45.407Z,77.60
2019-02-07T22:59:13.783Z,76.88
2019-02-07T23:01:44.797Z,77.52
2019-02-07T23:04:15.651Z,77.00
2019-02-07T23:06:46.475Z,77.64
2019-02-07T23:09:21.297Z,77.39
2019-02-07T23:11:49.755Z,77.24
2019-02-07T23:14:20.305Z,77.25
2019-02-07T23:16:53.817Z,77.71
2019-02-07T23:19:24.446Z,77.93
2019-02-07T23:21:55.082Z,77.63
2019-02-07T23:24:27.090Z,77.70
2019-02-07T23:26:57.335Z,77.29
2019-02-07T23:29:29.617Z,77.47
2019-02-07T23:31:59.947Z,77.70
2019-02-07T23:34:30.575Z,77.44
2019-02-07T23:37:01.199Z,77.60
2019-02-07T23:39:32.356Z,77.79
2019-02-07T23:42:04.134Z,78.24
2019-02-07T23:44:39.931Z,77.73
2019-02-07T23:47:11.842Z,78.09
2019-02-07T23:49:45.021Z,78.22
2019-02-07T23:52:16.743Z,77.87
2019-02-07T23:54:50.041Z,78.07
2019-02-07T23:57:19.904Z,78.51
2019-02-07T23:59:50.616Z,78.25
